createdAt,value
2019-04-26T00:00:02.476Z,19.89
2019-04-26T00:01:02.455Z,19.88
2019-04-26T00:02:02.457Z,19.92
2019-04-26T00:03:02.425Z,19.94
2019-04-26T00:04:02.419Z,19.92
2019-04-26T00:05:02.428Z,19.94
2019-04-26T00:06:02.396Z,19.94
2019-04-26T00:07:02.382Z,19.92
2019-04-26T00:08:02.369Z,19.91
2019-04-26T00:09:02.369Z,19.85
2019-04-26T00:10:02.379Z,19.91
2019-04-26T00:11:02.367Z,19.92
2019-04-26T00:12:02.332Z,19.89
2019-04-26T00:13:02.322Z,19.85
2019-04-26T00:14:02.319Z,19.81
2019-04-26T00:15:02.361Z,19.82
2019-04-26T00:16:02.282Z,19.82
2019-04-26T00:17:02.273Z,19.81
2019-04-26T00:18:02.260Z,19.79
2019-04-26T00:19:02.277Z,19.71
2019-04-26T00:20:02.262Z,19.73
2019-04-26T00:21:02.226Z,19.81
2019-04-26T00:22:02.219Z,19.79
2019-04-26T00:23:02.208Z,19.73
2019-04-26T00:24:02.193Z,19.73
2019-04-26T00:25:02.204Z,19.73
2019-04-26T00:26:02.161Z,19.82
2019-04-26T00:27:02.158Z,19.82
2019-04-26T00:28:02.147Z,19.70
2019-04-26T00:29:02.136Z,19.73
2019-04-26T00:30:02.148Z,19.63
2019-04-26T00:31:02.125Z,19.56
2019-04-26T00:32:02.099Z,19.74
2019-04-26T00:33:02.107Z,19.62
2019-04-26T00:34:02.081Z,19.70
2019-04-26T00:35:02.111Z,19.73
2019-04-26T00:36:02.058Z,19.73
2019-04-26T00:37:02.041Z,19.73
2019-04-26T00:38:02.042Z,19.71
2019-04-26T00:39:02.024Z,19.67
2019-04-26T00:40:02.013Z,19.66
2019-04-26T00:41:02.039Z,19.66
2019-04-26T00:42:01.992Z,19.63
2019-04-26T00:43:01.983Z,19.67
2019-04-26T00:44:01.967Z,19.62
2019-04-26T00:45:01.977Z,19.62
2019-04-26T00:46:01.972Z,19.63
2019-04-26T00:47:01.948Z,19.54
2019-04-26T00:48:01.938Z,19.56
2019-04-26T00:49:02.007Z,19.54
2019-04-26T00:50:01.932Z,19.48
2019-04-26T00:51:01.918Z,19.56
2019-04-26T00:52:01.902Z,19.49
2019-04-26T00:53:01.880Z,19.52
2019-04-26T00:54:01.863Z,19.45
2019-04-26T00:55:01.861Z,19.52
2019-04-26T00:56:01.853Z,19.39
2019-04-26T00:57:01.835Z,19.44
2019-04-26T00:58:01.822Z,19.39
2019-04-26T00:59:01.855Z,19.42
2019-04-26T01:00:01.807Z,19.36
2019-04-26T01:01:01.812Z,19.37
2019-04-26T01:02:01.786Z,19.34
2019-04-26T01:03:01.766Z,19.48
2019-04-26T01:04:01.760Z,19.37
2019-04-26T01:05:01.771Z,19.41
2019-04-26T01:06:01.752Z,19.30
2019-04-26T01:07:01.719Z,19.34
2019-04-26T01:08:01.717Z,19.37
2019-04-26T01:09:01.702Z,19.44
2019-04-26T01:10:01.695Z,19.44
2019-04-26T01:11:01.707Z,19.42
2019-04-26T01:12:01.665Z,19.42
2019-04-26T01:13:01.656Z,19.44
2019-04-26T01:14:01.648Z,19.29
2019-04-26T01:15:01.635Z,19.31
2019-04-26T01:16:01.643Z,19.31
2019-04-26T01:17:01.626Z,19.33
2019-04-26T01:18:01.608Z,19.29
2019-04-26T01:19:01.601Z,19.30
2019-04-26T01:20:01.589Z,19.24
2019-04-26T01:21:01.576Z,19.26
2019-04-26T01:22:01.571Z,19.30
2019-04-26T01:23:01.549Z,19.26
2019-04-26T01:24:01.532Z,19.30
2019-04-26T01:25:01.533Z,19.26
2019-04-26T01:26:01.531Z,19.27
2019-04-26T01:27:01.507Z,19.29
2019-04-26T01:28:01.489Z,19.27
2019-04-26T01:29:01.480Z,19.24
2019-04-26T01:30:01.471Z,19.16
2019-04-26T01:31:01.474Z,19.23
2019-04-26T01:32:01.463Z,19.24
2019-04-26T01:33:01.451Z,19.23
2019-04-26T01:34:01.425Z,19.14
2019-04-26T01:35:01.418Z,19.26
2019-04-26T01:36:12.319Z,19.15
2019-04-26T01:37:02.403Z,19.11
2019-04-26T01:38:01.384Z,19.14
2019-04-26T01:39:01.385Z,19.07
2019-04-26T01:40:01.367Z,19.09
2019-04-26T01:41:01.371Z,19.11
2019-04-26T01:42:01.339Z,19.04
2019-04-26T01:43:01.330Z,19.05
2019-04-26T01:44:01.332Z,19.08
2019-04-26T01:45:01.313Z,19.05
2019-04-26T01:46:01.305Z,18.99
2019-04-26T01:47:01.289Z,19.08
2019-04-26T01:48:01.274Z,19.00
2019-04-26T01:49:01.261Z,19.14
2019-04-26T01:50:01.261Z,19.14
2019-04-26T01:51:01.246Z,19.16
2019-04-26T01:52:01.244Z,19.14
2019-04-26T01:53:01.215Z,19.09
2019-04-26T01:54:01.211Z,19.07
2019-04-26T01:55:01.213Z,19.12
2019-04-26T01:56:01.190Z,19.09
2019-04-26T01:57:01.189Z,19.11
2019-04-26T01:58:01.156Z,19.07
2019-04-26T01:59:01.156Z,19.07
2019-04-26T02:00:01.137Z,19.05
2019-04-26T02:01:01.176Z,19.12
2019-04-26T02:02:01.157Z,19.11
2019-04-26T02:03:01.107Z,19.14
2019-04-26T02:04:01.090Z,19.05
2019-04-26T02:05:01.097Z,19.14
2019-04-26T02:06:01.077Z,19.07
2019-04-26T02:07:01.096Z,19.08
2019-04-26T02:08:01.091Z,19.07
2019-04-26T02:09:01.050Z,18.96
2019-04-26T02:10:01.033Z,18.96
2019-04-26T02:11:01.023Z,19.05
2019-04-26T02:12:01.055Z,19.09
2019-04-26T02:13:01.011Z,18.90
2019-04-26T02:14:00.985Z,18.99
2019-04-26T02:15:00.983Z,18.95
2019-04-26T02:16:00.966Z,19.05
2019-04-26T02:17:00.991Z,18.93
2019-04-26T02:18:00.949Z,18.93
2019-04-26T02:19:00.935Z,18.95
2019-04-26T02:20:00.966Z,18.92
2019-04-26T02:21:00.912Z,18.98
2019-04-26T02:22:00.929Z,18.95
2019-04-26T02:23:00.898Z,18.92
2019-04-26T02:24:00.891Z,18.90
2019-04-26T02:25:00.868Z,18.90
2019-04-26T02:26:00.870Z,18.90
2019-04-26T02:27:00.866Z,18.93
2019-04-26T02:28:00.847Z,18.92
2019-04-26T02:29:00.848Z,18.90
2019-04-26T02:30:00.825Z,18.88
2019-04-26T02:31:00.809Z,18.92
2019-04-26T02:32:00.830Z,18.95
2019-04-26T02:33:00.778Z,18.89
2019-04-26T02:34:00.773Z,18.99
2019-04-26T02:35:00.760Z,18.83
2019-04-26T02:36:00.748Z,18.90
2019-04-26T02:37:00.757Z,18.92
2019-04-26T02:38:00.747Z,18.83
2019-04-26T02:39:00.719Z,18.85
2019-04-26T02:40:00.704Z,18.80
2019-04-26T02:41:00.692Z,18.71
2019-04-26T02:42:00.760Z,18.74
2019-04-26T02:43:00.679Z,18.66
2019-04-26T02:44:00.654Z,18.73
2019-04-26T02:45:00.654Z,18.70
2019-04-26T02:46:00.632Z,18.70
2019-04-26T02:47:00.643Z,18.67
2019-04-26T02:48:00.611Z,18.63
2019-04-26T02:49:00.601Z,18.59
2019-04-26T02:50:00.608Z,18.59
2019-04-26T02:51:00.582Z,18.55
2019-04-26T02:52:00.593Z,18.60
2019-04-26T02:53:00.562Z,18.60
2019-04-26T02:54:00.547Z,18.56
2019-04-26T02:55:00.547Z,18.55
2019-04-26T02:56:00.523Z,18.53
2019-04-26T02:57:00.548Z,18.52
2019-04-26T02:58:00.544Z,18.55
2019-04-26T02:59:00.508Z,18.53
2019-04-26T03:00:00.493Z,18.48
2019-04-26T03:01:00.477Z,18.43
2019-04-26T03:02:00.462Z,18.46
2019-04-26T03:03:00.472Z,18.40
2019-04-26T03:04:00.443Z,18.44
2019-04-26T03:05:00.442Z,18.40
2019-04-26T03:06:00.423Z,18.40
2019-04-26T03:07:03.460Z,18.34
2019-04-26T03:08:00.417Z,18.34
2019-04-26T03:09:00.384Z,18.43
2019-04-26T03:10:00.376Z,18.30
2019-04-26T03:11:00.361Z,18.38
2019-04-26T03:12:00.354Z,18.38
2019-04-26T03:13:00.359Z,18.38
2019-04-26T03:14:00.365Z,18.41
2019-04-26T03:15:13.217Z,18.37
2019-04-26T03:16:01.309Z,18.37
2019-04-26T03:17:00.324Z,18.26
2019-04-26T03:18:00.305Z,18.31
2019-04-26T03:19:00.273Z,18.35
2019-04-26T03:20:00.275Z,18.35
2019-04-26T03:21:00.256Z,18.33
2019-04-26T03:22:00.243Z,18.28
2019-04-26T03:23:00.267Z,18.19
2019-04-26T03:24:00.240Z,18.22
2019-04-26T03:25:00.219Z,18.20
2019-04-26T03:26:00.200Z,18.26
2019-04-26T03:27:00.200Z,18.25
2019-04-26T03:28:00.208Z,18.20
2019-04-26T03:29:00.165Z,18.22
2019-04-26T03:30:18.845Z,18.28
2019-04-26T03:31:01.209Z,18.26
2019-04-26T03:32:00.140Z,18.30
2019-04-26T03:33:00.163Z,18.33
2019-04-26T03:34:00.235Z,18.35
2019-04-26T03:35:00.257Z,18.23
2019-04-26T03:36:00.097Z,18.31
2019-04-26T03:37:00.078Z,18.31
2019-04-26T03:38:00.094Z,18.28
2019-04-26T03:39:00.073Z,18.28
2019-04-26T03:40:00.053Z,18.26
2019-04-26T03:41:00.026Z,18.28
2019-04-26T03:42:00.034Z,18.33
2019-04-26T03:43:00.071Z,18.30
2019-04-26T03:44:00.004Z,18.30
2019-04-26T03:44:59.989Z,18.20
2019-04-26T03:45:59.975Z,18.13
2019-04-26T03:46:59.977Z,18.19
2019-04-26T03:47:59.973Z,18.18
2019-04-26T03:48:59.943Z,18.19
2019-04-26T03:49:59.946Z,18.22
2019-04-26T03:50:59.948Z,18.19
2019-04-26T03:51:59.921Z,18.30
2019-04-26T03:52:59.929Z,18.19
2019-04-26T03:53:59.894Z,18.26
2019-04-26T03:54:59.890Z,18.20
2019-04-26T03:55:59.869Z,18.23
2019-04-26T03:56:59.876Z,18.18
2019-04-26T03:57:59.873Z,18.22
2019-04-26T03:58:59.837Z,18.22
2019-04-26T03:59:59.822Z,18.20
2019-04-26T04:00:59.831Z,18.26
2019-04-26T04:01:59.810Z,18.26
2019-04-26T04:02:59.808Z,18.25
2019-04-26T04:03:59.804Z,18.26
2019-04-26T04:04:59.779Z,18.31
2019-04-26T04:05:59.759Z,18.28
2019-04-26T04:07:04.903Z,18.28
2019-04-26T04:08:00.746Z,18.31
2019-04-26T04:08:59.757Z,18.20
2019-04-26T04:09:59.731Z,18.28
2019-04-26T04:10:59.729Z,18.23
2019-04-26T04:12:10.725Z,18.26
2019-04-26T04:13:00.685Z,18.33
2019-04-26T04:13:59.793Z,18.31
2019-04-26T04:14:59.663Z,18.31
2019-04-26T04:15:59.670Z,18.28
2019-04-26T04:16:59.641Z,18.25
2019-04-26T04:17:59.635Z,18.31
2019-04-26T04:18:59.640Z,18.31
2019-04-26T04:19:59.614Z,18.33
2019-04-26T04:20:59.599Z,18.28
2019-04-26T04:21:59.586Z,18.31
2019-04-26T04:22:59.574Z,18.28
2019-04-26T04:23:59.577Z,18.31
2019-04-26T04:24:59.574Z,18.35
2019-04-26T04:25:59.540Z,18.33
2019-04-26T04:26:59.537Z,18.34
2019-04-26T04:28:03.138Z,18.31
2019-04-26T04:28:59.535Z,18.34
2019-04-26T04:29:59.505Z,18.23
2019-04-26T04:30:59.484Z,18.34
2019-04-26T04:31:59.501Z,18.35
2019-04-26T04:32:59.461Z,18.30
2019-04-26T04:33:59.474Z,18.25
2019-04-26T04:34:59.454Z,18.33
2019-04-26T04:35:59.441Z,18.34
2019-04-26T04:36:59.420Z,18.30
2019-04-26T04:38:08.712Z,18.35
2019-04-26T04:39:11.163Z,18.38
2019-04-26T04:40:00.421Z,18.37
2019-04-26T04:40:59.387Z,18.41
2019-04-26T04:41:59.366Z,18.40
2019-04-26T04:42:59.409Z,18.40
2019-04-26T04:43:59.381Z,18.37
2019-04-26T04:44:59.341Z,18.30
2019-04-26T04:45:59.376Z,18.38
2019-04-26T04:46:59.330Z,18.38
2019-04-26T04:47:59.301Z,18.35
2019-04-26T04:48:59.316Z,18.41
2019-04-26T04:49:59.309Z,18.41
2019-04-26T04:50:59.260Z,18.41
2019-04-26T04:51:59.261Z,18.37
2019-04-26T04:52:59.264Z,18.44
2019-04-26T04:53:59.262Z,18.49
2019-04-26T04:55:07.224Z,18.41
2019-04-26T04:56:00.244Z,18.50
2019-04-26T04:56:59.221Z,18.41
2019-04-26T04:57:59.202Z,18.52
2019-04-26T04:58:59.420Z,18.50
2019-04-26T04:59:59.293Z,18.55
2019-04-26T05:00:59.281Z,18.58
2019-04-26T05:01:59.145Z,18.60
2019-04-26T05:02:59.170Z,18.53
2019-04-26T05:03:59.171Z,18.58
2019-04-26T05:04:59.158Z,18.62
2019-04-26T05:06:07.413Z,18.63
2019-04-26T05:07:00.156Z,18.58
2019-04-26T05:08:06.480Z,18.58
2019-04-26T05:09:00.100Z,18.63
2019-04-26T05:09:59.086Z,18.55
2019-04-26T05:10:59.062Z,18.63
2019-04-26T05:11:59.039Z,18.66
2019-04-26T05:12:59.026Z,18.73
2019-04-26T05:13:59.052Z,18.66
2019-04-26T05:14:59.122Z,18.67
2019-04-26T05:15:59.009Z,18.66
2019-04-26T05:16:58.986Z,18.74
2019-04-26T05:17:58.994Z,18.67
2019-04-26T05:18:58.969Z,18.70
2019-04-26T05:19:59.218Z,18.75
2019-04-26T05:20:58.999Z,18.81
2019-04-26T05:21:58.979Z,18.77
2019-04-26T05:22:58.932Z,18.74
2019-04-26T05:23:58.940Z,18.77
2019-04-26T05:24:58.946Z,18.80
2019-04-26T05:25:58.882Z,18.80
2019-04-26T05:26:58.900Z,18.75
2019-04-26T05:27:58.890Z,18.89
2019-04-26T05:28:58.899Z,18.77
2019-04-26T05:29:58.910Z,18.78
2019-04-26T05:30:58.832Z,18.74
2019-04-26T05:31:58.822Z,18.74
2019-04-26T05:32:58.802Z,18.78
2019-04-26T05:33:58.861Z,18.78
2019-04-26T05:34:58.835Z,18.73
2019-04-26T05:35:58.814Z,18.74
2019-04-26T05:36:58.765Z,18.78
2019-04-26T05:37:58.758Z,18.74
2019-04-26T05:38:58.779Z,18.81
2019-04-26T05:40:01.699Z,18.78
2019-04-26T05:40:58.752Z,18.74
2019-04-26T05:41:58.741Z,18.80
2019-04-26T05:42:58.702Z,18.78
2019-04-26T05:43:58.700Z,18.85
2019-04-26T05:44:58.964Z,18.85
2019-04-26T05:45:58.677Z,18.88
2019-04-26T05:46:58.713Z,18.86
2019-04-26T05:48:08.402Z,18.92
2019-04-26T05:48:59.633Z,19.05
2019-04-26T05:49:58.657Z,18.95
2019-04-26T05:50:58.725Z,18.99
2019-04-26T05:51:58.645Z,19.05
2019-04-26T05:52:59.753Z,19.04
2019-04-26T05:53:58.595Z,19.08
2019-04-26T05:54:58.651Z,19.00
2019-04-26T05:55:58.555Z,19.18
2019-04-26T05:56:58.603Z,19.22
2019-04-26T05:57:58.655Z,19.23
2019-04-26T05:59:01.418Z,19.30
2019-04-26T05:59:58.901Z,19.31
2019-04-26T06:00:58.550Z,19.33
2019-04-26T06:01:59.061Z,19.41
2019-04-26T06:02:58.987Z,19.42
2019-04-26T06:03:58.470Z,19.45
2019-04-26T06:04:59.236Z,19.48
2019-04-26T06:05:58.565Z,19.54
2019-04-26T06:06:59.332Z,19.67
2019-04-26T06:07:58.613Z,19.64
2019-04-26T06:08:59.549Z,19.63
2019-04-26T06:09:58.629Z,19.62
2019-04-26T06:10:58.438Z,19.70
2019-04-26T06:11:58.785Z,19.74
2019-04-26T06:12:58.777Z,19.79
2019-04-26T06:13:58.367Z,19.79
2019-04-26T06:14:58.912Z,19.91
2019-04-26T06:15:58.363Z,19.86
2019-04-26T06:16:59.228Z,19.99
2019-04-26T06:17:58.321Z,20.01
2019-04-26T06:18:58.308Z,20.06
2019-04-26T06:19:59.366Z,20.01
2019-04-26T06:20:58.298Z,20.17
2019-04-26T06:21:58.289Z,20.17
2019-04-26T06:22:59.674Z,20.10
2019-04-26T06:23:58.258Z,20.11
2019-04-26T06:24:58.274Z,20.15
2019-04-26T06:26:00.913Z,20.24
2019-04-26T06:27:10.326Z,20.28
2019-04-26T06:27:59.231Z,20.29
2019-04-26T06:28:59.025Z,20.26
2019-04-26T06:29:58.781Z,20.26
2019-04-26T06:30:59.309Z,20.41
2019-04-26T06:31:58.158Z,20.41
2019-04-26T06:33:04.026Z,20.44
2019-04-26T06:33:59.161Z,20.59
2019-04-26T06:34:59.291Z,20.62
2019-04-26T06:35:59.247Z,20.60
2019-04-26T06:36:58.108Z,20.67
2019-04-26T06:37:58.093Z,20.72
2019-04-26T06:38:58.102Z,20.75
2019-04-26T06:39:58.070Z,20.85
2019-04-26T06:40:58.223Z,20.84
2019-04-26T06:41:58.492Z,20.95
2019-04-26T06:42:58.313Z,20.96
2019-04-26T06:43:58.307Z,21.05
2019-04-26T06:44:58.332Z,21.12
2019-04-26T06:45:58.601Z,21.06
2019-04-26T06:46:58.006Z,21.14
2019-04-26T06:47:58.819Z,21.21
2019-04-26T06:48:58.922Z,21.20
2019-04-26T06:49:58.006Z,21.18
2019-04-26T06:50:58.494Z,21.24
2019-04-26T06:51:58.474Z,21.29
2019-04-26T06:52:58.156Z,21.29
2019-04-26T06:53:58.621Z,21.32
2019-04-26T06:54:57.903Z,21.30
2019-04-26T06:55:59.065Z,21.43
2019-04-26T06:57:07.962Z,21.45
2019-04-26T06:57:59.949Z,21.52
2019-04-26T06:58:57.951Z,21.54
2019-04-26T06:59:57.852Z,21.54
2019-04-26T07:00:58.968Z,21.58
2019-04-26T07:01:59.048Z,21.59
2019-04-26T07:02:58.906Z,21.77
2019-04-26T07:03:58.329Z,21.70
2019-04-26T07:04:59.222Z,21.82
2019-04-26T07:05:58.826Z,21.84
2019-04-26T07:06:58.229Z,21.90
2019-04-26T07:07:57.765Z,21.95
2019-04-26T07:08:59.397Z,21.98
2019-04-26T07:09:59.113Z,22.07
2019-04-26T07:10:59.125Z,22.07
2019-04-26T07:11:59.360Z,22.13
2019-04-26T07:12:58.698Z,22.11
2019-04-26T07:13:59.160Z,22.17
2019-04-26T07:14:57.713Z,22.26
2019-04-26T07:15:57.731Z,22.32
2019-04-26T07:16:58.217Z,22.36
2019-04-26T07:17:57.648Z,22.45
2019-04-26T07:18:57.634Z,22.54
2019-04-26T07:19:59.664Z,22.65
2019-04-26T07:20:57.650Z,22.77
2019-04-26T07:21:57.612Z,22.83
2019-04-26T07:22:57.588Z,22.85
2019-04-26T07:23:57.598Z,22.96
2019-04-26T07:24:57.588Z,23.15
2019-04-26T07:25:57.582Z,23.14
2019-04-26T07:26:57.551Z,23.18
2019-04-26T07:28:03.669Z,23.28
2019-04-26T07:28:58.546Z,23.25
2019-04-26T07:29:57.550Z,23.36
2019-04-26T07:30:57.543Z,23.36
2019-04-26T07:31:57.503Z,23.34
2019-04-26T07:32:57.499Z,23.41
2019-04-26T07:33:57.493Z,23.48
2019-04-26T07:34:57.465Z,23.44
2019-04-26T07:35:58.954Z,23.44
2019-04-26T07:36:57.457Z,23.44
2019-04-26T07:37:57.427Z,23.47
2019-04-26T07:39:09.046Z,23.44
2019-04-26T07:39:58.423Z,23.46
2019-04-26T07:40:57.409Z,23.46
2019-04-26T07:41:57.408Z,23.53
2019-04-26T07:42:57.386Z,23.46
2019-04-26T07:43:57.419Z,23.47
2019-04-26T07:44:57.369Z,23.51
2019-04-26T07:45:57.569Z,23.53
2019-04-26T07:46:57.358Z,23.59
2019-04-26T07:47:57.366Z,23.48
2019-04-26T07:48:57.320Z,23.52
2019-04-26T07:49:57.298Z,23.53
2019-04-26T07:50:57.325Z,23.52
2019-04-26T07:51:57.309Z,23.56
2019-04-26T07:52:57.322Z,23.56
2019-04-26T07:53:57.548Z,23.53
2019-04-26T07:54:57.276Z,23.68
2019-04-26T07:55:57.336Z,23.65
2019-04-26T07:56:57.234Z,23.59
2019-04-26T07:57:57.205Z,23.70
2019-04-26T07:58:57.213Z,23.77
2019-04-26T07:59:57.198Z,23.84
2019-04-26T08:00:57.207Z,23.86
2019-04-26T08:01:57.223Z,23.90
2019-04-26T08:02:57.150Z,23.88
2019-04-26T08:03:57.166Z,24.03
2019-04-26T08:04:57.148Z,24.03
2019-04-26T08:05:57.125Z,24.07
2019-04-26T08:06:57.134Z,24.13
2019-04-26T08:07:57.101Z,24.17
2019-04-26T08:08:57.088Z,24.17
2019-04-26T08:09:59.935Z,24.23
2019-04-26T08:10:57.118Z,24.30
2019-04-26T08:11:57.165Z,24.28
2019-04-26T08:12:57.041Z,24.36
2019-04-26T08:13:57.093Z,24.40
2019-04-26T08:14:57.033Z,24.45
2019-04-26T08:15:57.021Z,24.51
2019-04-26T08:16:57.055Z,24.48
2019-04-26T08:17:56.983Z,24.47
2019-04-26T08:18:56.978Z,24.43
2019-04-26T08:19:57.567Z,24.44
2019-04-26T08:20:56.949Z,24.44
2019-04-26T08:22:11.564Z,24.47
2019-04-26T08:22:57.929Z,24.48
2019-04-26T08:23:57.851Z,24.52
2019-04-26T08:24:57.025Z,24.54
2019-04-26T08:25:56.897Z,24.55
2019-04-26T08:27:08.284Z,24.58
2019-04-26T08:27:57.929Z,24.66
2019-04-26T08:29:00.541Z,24.62
2019-04-26T08:29:56.841Z,24.66
2019-04-26T08:30:56.831Z,24.58
2019-04-26T08:31:57.909Z,24.65
2019-04-26T08:32:56.832Z,24.63
2019-04-26T08:33:56.839Z,24.67
2019-04-26T08:34:56.821Z,24.67
2019-04-26T08:35:56.799Z,24.78
2019-04-26T08:36:57.293Z,24.77
2019-04-26T08:37:57.457Z,24.95
2019-04-26T08:38:56.765Z,24.98
2019-04-26T08:39:56.756Z,25.14
2019-04-26T08:41:00.510Z,25.28
2019-04-26T08:41:57.728Z,25.37
2019-04-26T08:42:57.366Z,25.45
2019-04-26T08:43:59.771Z,25.53
2019-04-26T08:44:57.683Z,25.43
2019-04-26T08:46:03.087Z,25.51
2019-04-26T08:46:57.673Z,25.60
2019-04-26T08:47:56.667Z,25.55
2019-04-26T08:48:58.153Z,25.58
2019-04-26T08:49:56.631Z,25.56
2019-04-26T08:50:56.631Z,25.69
2019-04-26T08:51:57.499Z,25.75
2019-04-26T08:52:57.863Z,25.78
2019-04-26T08:53:56.585Z,25.80
2019-04-26T08:54:56.575Z,25.80
2019-04-26T08:55:56.565Z,25.84
2019-04-26T08:56:56.589Z,25.80
2019-04-26T08:57:56.571Z,25.74
2019-04-26T08:58:56.526Z,25.77
2019-04-26T08:59:56.514Z,25.69
2019-04-26T09:00:56.512Z,25.73
2019-04-26T09:01:56.522Z,25.63
2019-04-26T09:02:56.489Z,25.59
2019-04-26T09:03:56.478Z,25.53
2019-04-26T09:04:56.489Z,25.55
2019-04-26T09:05:56.455Z,25.58
2019-04-26T09:06:56.481Z,25.40
2019-04-26T09:07:57.636Z,25.45
2019-04-26T09:08:56.419Z,25.44
2019-04-26T09:09:57.482Z,25.50
2019-04-26T09:10:56.429Z,25.45
2019-04-26T09:11:59.788Z,25.44
2019-04-26T09:12:56.376Z,25.37
2019-04-26T09:13:56.373Z,25.29
2019-04-26T09:14:56.389Z,25.30
2019-04-26T09:15:56.362Z,25.26
2019-04-26T09:16:56.372Z,25.26
2019-04-26T09:17:56.322Z,25.28
2019-04-26T09:18:59.650Z,25.28
2019-04-26T09:19:58.115Z,25.25
2019-04-26T09:20:56.288Z,25.20
2019-04-26T09:21:59.059Z,25.18
2019-04-26T09:23:03.733Z,25.14
2019-04-26T09:23:57.261Z,25.14
2019-04-26T09:24:59.359Z,25.10
2019-04-26T09:25:59.449Z,25.10
2019-04-26T09:26:56.283Z,25.04
2019-04-26T09:27:58.884Z,25.07
2019-04-26T09:28:56.504Z,25.03
2019-04-26T09:29:56.190Z,25.04
2019-04-26T09:30:56.189Z,25.07
2019-04-26T09:31:56.196Z,25.04
2019-04-26T09:32:58.331Z,25.14
2019-04-26T09:33:57.147Z,25.11
2019-04-26T09:34:56.167Z,25.06
2019-04-26T09:35:56.122Z,25.00
2019-04-26T09:36:56.148Z,25.11
2019-04-26T09:37:56.107Z,25.08
2019-04-26T09:38:56.093Z,25.08
2019-04-26T09:39:56.092Z,25.06
2019-04-26T09:40:57.198Z,25.06
2019-04-26T09:41:56.094Z,25.08
2019-04-26T09:42:56.061Z,24.98
2019-04-26T09:43:58.771Z,25.07
2019-04-26T09:44:56.952Z,25.11
2019-04-26T09:45:56.046Z,25.14
2019-04-26T09:46:56.029Z,25.18
2019-04-26T09:47:56.006Z,25.15
2019-04-26T09:48:55.993Z,25.14
2019-04-26T09:49:55.978Z,25.20
2019-04-26T09:50:55.983Z,25.19
2019-04-26T09:51:55.972Z,25.20
2019-04-26T09:52:58.127Z,25.28
2019-04-26T09:53:55.934Z,25.25
2019-04-26T09:54:55.922Z,25.19
2019-04-26T09:55:55.910Z,25.29
2019-04-26T09:56:55.922Z,25.28
2019-04-26T09:57:56.995Z,25.28
2019-04-26T09:58:55.920Z,25.29
2019-04-26T09:59:55.870Z,25.29
2019-04-26T10:00:55.857Z,25.28
2019-04-26T10:01:59.350Z,25.33
2019-04-26T10:02:55.838Z,25.29
2019-04-26T10:03:55.825Z,25.30
2019-04-26T10:04:55.824Z,25.28
2019-04-26T10:05:57.012Z,25.44
2019-04-26T10:06:55.804Z,25.43
2019-04-26T10:07:55.784Z,25.51
2019-04-26T10:08:55.763Z,25.47
2019-04-26T10:09:57.145Z,25.44
2019-04-26T10:10:55.844Z,25.43
2019-04-26T10:11:55.775Z,25.56
2019-04-26T10:12:55.718Z,25.47
2019-04-26T10:13:55.717Z,25.62
2019-04-26T10:14:55.697Z,25.73
2019-04-26T10:15:58.304Z,25.63
2019-04-26T10:16:56.714Z,25.70
2019-04-26T10:17:55.663Z,25.74
2019-04-26T10:18:58.250Z,25.77
2019-04-26T10:19:55.641Z,25.78
2019-04-26T10:20:55.638Z,25.92
2019-04-26T10:21:55.668Z,25.87
2019-04-26T10:22:55.778Z,26.03
2019-04-26T10:23:55.769Z,26.07
2019-04-26T10:24:55.789Z,26.16
2019-04-26T10:25:55.639Z,26.18
2019-04-26T10:26:55.598Z,26.22
2019-04-26T10:27:55.596Z,26.34
2019-04-26T10:28:55.540Z,26.44
2019-04-26T10:30:04.558Z,26.40
2019-04-26T10:30:56.523Z,26.33
2019-04-26T10:31:55.541Z,26.38
2019-04-26T10:32:58.264Z,26.43
2019-04-26T10:33:56.500Z,26.38
2019-04-26T10:34:55.480Z,26.48
2019-04-26T10:35:56.597Z,26.43
2019-04-26T10:36:57.005Z,26.49
2019-04-26T10:37:55.445Z,26.57
2019-04-26T10:38:58.493Z,26.63
2019-04-26T10:39:55.437Z,26.63
2019-04-26T10:40:55.477Z,26.72
2019-04-26T10:41:55.417Z,26.74
2019-04-26T10:42:55.405Z,26.89
2019-04-26T10:43:55.380Z,26.90
2019-04-26T10:44:55.375Z,26.89
2019-04-26T10:45:55.367Z,26.87
2019-04-26T10:46:55.903Z,26.80
2019-04-26T10:47:55.348Z,26.85
2019-04-26T10:49:02.676Z,26.85
2019-04-26T10:49:58.270Z,26.95
2019-04-26T10:50:55.328Z,27.05
2019-04-26T10:51:55.358Z,27.18
2019-04-26T10:52:55.722Z,27.18
2019-04-26T10:53:55.302Z,27.27
2019-04-26T10:54:55.265Z,27.30
2019-04-26T10:55:55.263Z,27.39
2019-04-26T10:56:55.281Z,27.45
2019-04-26T10:57:55.418Z,27.42
2019-04-26T10:58:55.241Z,27.67
2019-04-26T10:59:55.264Z,27.80
2019-04-26T11:00:55.201Z,27.74
2019-04-26T11:01:55.262Z,27.77
2019-04-26T11:02:55.246Z,27.70
2019-04-26T11:03:55.160Z,27.74
2019-04-26T11:04:55.832Z,27.77
2019-04-26T11:05:55.398Z,27.71
2019-04-26T11:06:58.116Z,27.82
2019-04-26T11:07:56.122Z,27.82
2019-04-26T11:08:55.104Z,27.86
2019-04-26T11:09:55.112Z,27.90
2019-04-26T11:10:55.091Z,27.98
2019-04-26T11:11:55.097Z,28.05
2019-04-26T11:12:55.210Z,28.11
2019-04-26T11:13:57.440Z,28.26
2019-04-26T11:14:56.997Z,28.36
2019-04-26T11:15:55.035Z,28.49
2019-04-26T11:16:55.049Z,28.56
2019-04-26T11:17:55.020Z,28.69
2019-04-26T11:18:57.214Z,28.81
2019-04-26T11:19:55.981Z,28.93
2019-04-26T11:20:54.975Z,29.02
2019-04-26T11:21:56.020Z,29.05
2019-04-26T11:22:54.981Z,29.02
2019-04-26T11:23:54.953Z,29.01
2019-04-26T11:24:55.101Z,28.91
2019-04-26T11:25:57.859Z,28.79
2019-04-26T11:26:55.955Z,28.82
2019-04-26T11:27:54.923Z,28.83
2019-04-26T11:28:55.766Z,28.72
2019-04-26T11:29:54.905Z,28.76
2019-04-26T11:30:57.377Z,28.79
2019-04-26T11:31:58.388Z,28.78
2019-04-26T11:32:55.842Z,28.66
2019-04-26T11:34:04.664Z,28.51
2019-04-26T11:34:58.781Z,28.38
2019-04-26T11:35:54.836Z,28.45
2019-04-26T11:36:54.848Z,28.48
2019-04-26T11:37:56.648Z,28.56
2019-04-26T11:38:54.813Z,28.49
2019-04-26T11:39:54.780Z,28.57
2019-04-26T11:41:05.775Z,28.63
2019-04-26T11:41:55.783Z,28.56
2019-04-26T11:42:54.786Z,28.63
2019-04-26T11:43:54.786Z,28.75
2019-04-26T11:45:05.669Z,28.76
2019-04-26T11:46:04.254Z,28.75
2019-04-26T11:46:59.410Z,28.64
2019-04-26T11:47:56.622Z,28.63
2019-04-26T11:48:59.182Z,28.73
2019-04-26T11:49:54.713Z,28.78
2019-04-26T11:50:54.654Z,28.86
2019-04-26T11:51:54.663Z,28.85
2019-04-26T11:52:54.632Z,28.75
2019-04-26T11:53:54.629Z,28.76
2019-04-26T11:54:55.221Z,28.76
2019-04-26T11:55:54.644Z,28.71
2019-04-26T11:56:54.645Z,28.69
2019-04-26T11:57:54.606Z,28.69
2019-04-26T11:58:56.809Z,28.71
2019-04-26T11:59:54.580Z,28.64
2019-04-26T12:00:54.558Z,28.56
2019-04-26T12:01:54.597Z,28.44
2019-04-26T12:02:54.601Z,28.38
2019-04-26T12:03:55.620Z,28.19
2019-04-26T12:04:55.118Z,28.05
2019-04-26T12:05:54.500Z,28.05
2019-04-26T12:06:54.540Z,28.02
2019-04-26T12:07:54.476Z,27.95
2019-04-26T12:08:54.508Z,27.72
2019-04-26T12:09:54.448Z,27.77
2019-04-26T12:10:54.477Z,27.74
2019-04-26T12:12:04.415Z,27.79
2019-04-26T12:13:05.163Z,27.85
2019-04-26T12:13:59.268Z,27.79
2019-04-26T12:14:54.404Z,27.77
2019-04-26T12:15:54.386Z,27.86
2019-04-26T12:16:59.183Z,27.87
2019-04-26T12:17:58.656Z,27.97
2019-04-26T12:18:54.360Z,27.83
2019-04-26T12:19:54.370Z,27.82
2019-04-26T12:20:57.183Z,27.77
2019-04-26T12:21:55.345Z,27.60
2019-04-26T12:22:54.339Z,27.52
2019-04-26T12:23:55.527Z,27.55
2019-04-26T12:24:54.444Z,27.39
2019-04-26T12:25:54.295Z,27.33
2019-04-26T12:26:55.906Z,27.22
2019-04-26T12:27:54.452Z,27.18
2019-04-26T12:28:54.362Z,27.09
2019-04-26T12:29:54.272Z,27.09
2019-04-26T12:30:58.573Z,26.95
2019-04-26T12:31:55.277Z,26.92
2019-04-26T12:32:54.201Z,26.86
2019-04-26T12:33:54.189Z,26.75
2019-04-26T12:34:54.221Z,26.60
2019-04-26T12:35:57.137Z,26.65
2019-04-26T12:36:54.219Z,26.56
2019-04-26T12:37:54.768Z,26.41
2019-04-26T12:38:54.134Z,26.34
2019-04-26T12:39:54.157Z,26.23
2019-04-26T12:40:54.154Z,26.11
2019-04-26T12:41:54.153Z,26.07
2019-04-26T12:42:54.103Z,25.96
2019-04-26T12:43:54.578Z,25.96
2019-04-26T12:44:54.079Z,26.00
2019-04-26T12:45:54.125Z,26.00
2019-04-26T12:46:54.082Z,26.03
2019-04-26T12:47:54.115Z,26.04
2019-04-26T12:48:54.034Z,25.96
2019-04-26T12:49:54.474Z,26.00
2019-04-26T12:50:54.030Z,26.00
2019-04-26T12:51:53.999Z,26.02